sensor_id;sensor_type;location;lat;lon;timestamp;P1;durP1;ratioP1;P2;durP2;ratioP2
20870;SDS011;10595;51.218;3.452;2022-10-16T00:00:44;4.47;;;2.50;;
20870;SDS011;10595;51.218;3.452;2022-10-16T00:03:10;4.00;;;2.10;;
20870;SDS011;10595;51.218;3.452;2022-10-16T00:05:40;3.87;;;2.17;;
20870;SDS011;10595;51.218;3.452;2022-10-16T00:08:07;3.00;;;2.70;;
20870;SDS011;10595;51.218;3.452;2022-10-16T00:10:33;2.87;;;2.20;;
20870;SDS011;10595;51.218;3.452;2022-10-16T00:13:00;3.80;;;2.37;;
20870;SDS011;10595;51.218;3.452;2022-10-16T00:15:26;3.67;;;2.17;;
20870;SDS011;10595;51.218;3.452;2022-10-16T00:17:52;4.27;;;2.10;;
20870;SDS011;10595;51.218;3.452;2022-10-16T00:20:18;3.50;;;2.20;;
20870;SDS011;10595;51.218;3.452;2022-10-16T00:22:44;2.60;;;1.80;;
20870;SDS011;10595;51.218;3.452;2022-10-16T00:25:10;3.17;;;2.17;;
20870;SDS011;10595;51.218;3.452;2022-10-16T00:27:36;3.97;;;2.10;;
20870;SDS011;10595;51.218;3.452;2022-10-16T00:30:02;3.37;;;2.00;;
20870;SDS011;10595;51.218;3.452;2022-10-16T00:32:28;3.90;;;2.00;;
20870;SDS011;10595;51.218;3.452;2022-10-16T00:34:54;2.60;;;1.90;;
20870;SDS011;10595;51.218;3.452;2022-10-16T00:37:20;4.57;;;2.50;;
20870;SDS011;10595;51.218;3.452;2022-10-16T00:39:46;6.03;;;2.10;;
20870;SDS011;10595;51.218;3.452;2022-10-16T00:42:16;5.47;;;2.20;;
20870;SDS011;10595;51.218;3.452;2022-10-16T00:44:56;3.77;;;2.07;;
20870;SDS011;10595;51.218;3.452;2022-10-16T00:47:24;4.60;;;1.83;;
20870;SDS011;10595;51.218;3.452;2022-10-16T00:49:53;3.80;;;1.83;;
20870;SDS011;10595;51.218;3.452;2022-10-16T00:52:19;3.37;;;1.63;;
20870;SDS011;10595;51.218;3.452;2022-10-16T00:54:45;3.83;;;1.70;;
20870;SDS011;10595;51.218;3.452;2022-10-16T00:57:12;4.03;;;1.70;;
20870;SDS011;10595;51.218;3.452;2022-10-16T00:59:39;2.77;;;1.50;;
20870;SDS011;10595;51.218;3.452;2022-10-16T01:02:07;3.40;;;1.30;;
20870;SDS011;10595;51.218;3.452;2022-10-16T01:04:38;4.40;;;1.47;;
20870;SDS011;10595;51.218;3.452;2022-10-16T01:14:38;4.33;;;1.70;;
20870;SDS011;10595;51.218;3.452;2022-10-16T01:17:16;3.77;;;1.67;;
20870;SDS011;10595;51.218;3.452;2022-10-16T01:20:00;1.70;;;1.50;;
20870;SDS011;10595;51.218;3.452;2022-10-16T01:22:54;1.90;;;1.67;;
20870;SDS011;10595;51.218;3.452;2022-10-16T01:25:18;2.83;;;1.60;;
20870;SDS011;10595;51.218;3.452;2022-10-16T01:27:48;2.13;;;1.70;;
20870;SDS011;10595;51.218;3.452;2022-10-16T01:30:20;3.73;;;1.70;;
20870;SDS011;10595;51.218;3.452;2022-10-16T01:35:16;3.43;;;1.40;;
20870;SDS011;10595;51.218;3.452;2022-10-16T01:37:45;5.27;;;1.53;;
20870;SDS011;10595;51.218;3.452;2022-10-16T01:40:12;3.73;;;1.70;;
20870;SDS011;10595;51.218;3.452;2022-10-16T01:42:40;1.97;;;1.77;;
20870;SDS011;10595;51.218;3.452;2022-10-16T01:45:07;4.53;;;1.70;;
20870;SDS011;10595;51.218;3.452;2022-10-16T01:47:36;6.27;;;1.73;;
20870;SDS011;10595;51.218;3.452;2022-10-16T01:50:03;2.10;;;1.90;;
20870;SDS011;10595;51.218;3.452;2022-10-16T01:52:30;4.33;;;1.60;;
20870;SDS011;10595;51.218;3.452;2022-10-16T01:54:57;2.63;;;1.77;;
20870;SDS011;10595;51.218;3.452;2022-10-16T01:57:25;4.40;;;1.87;;
20870;SDS011;10595;51.218;3.452;2022-10-16T01:59:52;3.77;;;1.67;;
20870;SDS011;10595;51.218;3.452;2022-10-16T02:02:19;5.20;;;1.70;;
20870;SDS011;10595;51.218;3.452;2022-10-16T02:04:51;3.93;;;1.57;;
20870;SDS011;10595;51.218;3.452;2022-10-16T02:07:19;2.53;;;1.40;;
20870;SDS011;10595;51.218;3.452;2022-10-16T02:09:45;1.83;;;1.27;;
20870;SDS011;10595;51.218;3.452;2022-10-16T02:14:46;3.93;;;1.57;;
20870;SDS011;10595;51.218;3.452;2022-10-16T02:17:13;3.30;;;1.70;;
20870;SDS011;10595;51.218;3.452;2022-10-16T02:19:40;5.20;;;2.20;;
20870;SDS011;10595;51.218;3.452;2022-10-16T02:22:06;2.40;;;1.33;;
20870;SDS011;10595;51.218;3.452;2022-10-16T02:29:38;4.17;;;1.83;;
20870;SDS011;10595;51.218;3.452;2022-10-16T02:32:05;3.23;;;1.60;;
20870;SDS011;10595;51.218;3.452;2022-10-16T02:34:32;2.47;;;1.57;;
20870;SDS011;10595;51.218;3.452;2022-10-16T02:37:00;3.77;;;1.80;;
20870;SDS011;10595;51.218;3.452;2022-10-16T02:39:27;9.53;;;1.80;;
20870;SDS011;10595;51.218;3.452;2022-10-16T02:41:53;3.70;;;1.87;;
20870;SDS011;10595;51.218;3.452;2022-10-16T02:44:19;5.33;;;1.80;;
20870;SDS011;10595;51.218;3.452;2022-10-16T02:46:45;2.30;;;1.87;;
20870;SDS011;10595;51.218;3.452;2022-10-16T02:49:11;5.00;;;2.00;;
20870;SDS011;10595;51.218;3.452;2022-10-16T02:51:37;5.40;;;1.90;;
20870;SDS011;10595;51.218;3.452;2022-10-16T02:54:03;5.53;;;1.80;;
20870;SDS011;10595;51.218;3.452;2022-10-16T02:56:29;3.67;;;1.87;;
20870;SDS011;10595;51.218;3.452;2022-10-16T02:58:56;6.23;;;1.70;;
20870;SDS011;10595;51.218;3.452;2022-10-16T03:01:22;2.80;;;1.77;;
20870;SDS011;10595;51.218;3.452;2022-10-16T03:03:48;3.53;;;1.90;;
20870;SDS011;10595;51.218;3.452;2022-10-16T03:06:14;3.00;;;1.90;;
20870;SDS011;10595;51.218;3.452;2022-10-16T03:08:40;4.13;;;1.80;;
20870;SDS011;10595;51.218;3.452;2022-10-16T03:11:06;5.70;;;2.20;;
20870;SDS011;10595;51.218;3.452;2022-10-16T03:13:32;4.30;;;2.00;;
20870;SDS011;10595;51.218;3.452;2022-10-16T03:15:58;4.43;;;2.10;;
20870;SDS011;10595;51.218;3.452;2022-10-16T03:18:24;2.43;;;1.77;;
20870;SDS011;10595;51.218;3.452;2022-10-16T03:20:50;3.73;;;1.80;;
20870;SDS011;10595;51.218;3.452;2022-10-16T03:23:16;4.00;;;2.00;;
20870;SDS011;10595;51.218;3.452;2022-10-16T03:25:42;4.07;;;2.13;;
20870;SDS011;10595;51.218;3.452;2022-10-16T03:28:08;2.83;;;1.80;;
20870;SDS011;10595;51.218;3.452;2022-10-16T03:30:34;5.13;;;2.20;;
20870;SDS011;10595;51.218;3.452;2022-10-16T03:33:00;4.73;;;1.70;;
20870;SDS011;10595;51.218;3.452;2022-10-16T03:35:26;3.13;;;1.80;;
20870;SDS011;10595;51.218;3.452;2022-10-16T03:37:52;3.70;;;1.70;;
20870;SDS011;10595;51.218;3.452;2022-10-16T03:40:18;5.43;;;1.90;;
20870;SDS011;10595;51.218;3.452;2022-10-16T03:42:44;4.47;;;1.93;;
20870;SDS011;10595;51.218;3.452;2022-10-16T03:45:11;4.00;;;1.77;;
20870;SDS011;10595;51.218;3.452;2022-10-16T03:47:37;3.33;;;1.80;;
20870;SDS011;10595;51.218;3.452;2022-10-16T03:50:03;3.77;;;1.90;;
20870;SDS011;10595;51.218;3.452;2022-10-16T03:52:30;5.90;;;2.00;;
20870;SDS011;10595;51.218;3.452;2022-10-16T03:54:57;3.40;;;2.00;;
20870;SDS011;10595;51.218;3.452;2022-10-16T03:57:23;5.30;;;2.03;;
20870;SDS011;10595;51.218;3.452;2022-10-16T03:59:49;4.40;;;1.80;;
20870;SDS011;10595;51.218;3.452;2022-10-16T04:02:15;4.50;;;2.13;;
20870;SDS011;10595;51.218;3.452;2022-10-16T04:04:41;4.00;;;1.57;;
20870;SDS011;10595;51.218;3.452;2022-10-16T04:07:07;6.07;;;2.00;;
20870;SDS011;10595;51.218;3.452;2022-10-16T04:09:33;8.37;;;2.13;;
20870;SDS011;10595;51.218;3.452;2022-10-16T04:11:59;5.13;;;1.77;;
20870;SDS011;10595;51.218;3.452;2022-10-16T04:14:25;4.47;;;1.73;;
20870;SDS011;10595;51.218;3.452;2022-10-16T04:16:51;6.03;;;2.00;;
20870;SDS011;10595;51.218;3.452;2022-10-16T04:19:17;7.93;;;1.80;;
20870;SDS011;10595;51.218;3.452;2022-10-16T04:21:44;4.50;;;1.93;;
20870;SDS011;10595;51.218;3.452;2022-10-16T04:24:10;4.37;;;1.97;;
20870;SDS011;10595;51.218;3.452;2022-10-16T04:26:36;4.47;;;2.03;;
20870;SDS011;10595;51.218;3.452;2022-10-16T04:29:02;4.47;;;2.07;;
20870;SDS011;10595;51.218;3.452;2022-10-16T04:31:28;4.00;;;1.93;;
20870;SDS011;10595;51.218;3.452;2022-10-16T04:33:54;6.73;;;2.03;;
20870;SDS011;10595;51.218;3.452;2022-10-16T04:36:20;4.40;;;2.20;;
20870;SDS011;10595;51.218;3.452;2022-10-16T04:38:46;4.53;;;1.80;;
20870;SDS011;10595;51.218;3.452;2022-10-16T04:41:12;5.60;;;1.80;;
20870;SDS011;10595;51.218;3.452;2022-10-16T04:43:38;3.13;;;2.10;;
20870;SDS011;10595;51.218;3.452;2022-10-16T04:46:04;5.97;;;2.33;;
20870;SDS011;10595;51.218;3.452;2022-10-16T04:48:30;5.13;;;1.93;;
20870;SDS011;10595;51.218;3.452;2022-10-16T04:50:56;5.63;;;2.30;;
20870;SDS011;10595;51.218;3.452;2022-10-16T04:53:23;3.63;;;1.70;;
20870;SDS011;10595;51.218;3.452;2022-10-16T04:55:49;9.20;;;2.10;;
20870;SDS011;10595;51.218;3.452;2022-10-16T04:58:15;5.43;;;2.20;;
20870;SDS011;10595;51.218;3.452;2022-10-16T05:00:41;7.77;;;2.50;;
20870;SDS011;10595;51.218;3.452;2022-10-16T05:03:07;5.73;;;2.30;;
20870;SDS011;10595;51.218;3.452;2022-10-16T05:05:34;5.87;;;2.40;;
20870;SDS011;10595;51.218;3.452;2022-10-16T05:08:00;5.17;;;1.90;;
20870;SDS011;10595;51.218;3.452;2022-10-16T05:10:26;5.20;;;2.30;;
20870;SDS011;10595;51.218;3.452;2022-10-16T05:12:53;4.77;;;2.17;;
20870;SDS011;10595;51.218;3.452;2022-10-16T05:15:19;4.23;;;1.70;;
20870;SDS011;10595;51.218;3.452;2022-10-16T05:17:45;3.97;;;1.87;;
20870;SDS011;10595;51.218;3.452;2022-10-16T05:20:11;4.53;;;1.60;;
20870;SDS011;10595;51.218;3.452;2022-10-16T05:22:37;8.67;;;2.10;;
20870;SDS011;10595;51.218;3.452;2022-10-16T05:25:04;4.70;;;2.17;;
20870;SDS011;10595;51.218;3.452;2022-10-16T05:27:30;7.53;;;2.30;;
20870;SDS011;10595;51.218;3.452;2022-10-16T05:29:56;9.47;;;2.07;;
20870;SDS011;10595;51.218;3.452;2022-10-16T05:32:22;4.70;;;1.63;;
20870;SDS011;10595;51.218;3.452;2022-10-16T05:34:48;4.87;;;2.10;;
20870;SDS011;10595;51.218;3.452;2022-10-16T05:37:14;4.40;;;1.87;;
20870;SDS011;10595;51.218;3.452;2022-10-16T05:39:40;6.17;;;2.00;;
20870;SDS011;10595;51.218;3.452;2022-10-16T05:42:06;4.20;;;1.90;;
20870;SDS011;10595;51.218;3.452;2022-10-16T05:44:32;5.13;;;2.20;;
20870;SDS011;10595;51.218;3.452;2022-10-16T05:46:58;5.00;;;2.10;;
20870;SDS011;10595;51.218;3.452;2022-10-16T05:49:24;7.57;;;2.13;;
20870;SDS011;10595;51.218;3.452;2022-10-16T05:51:50;11.90;;;2.60;;
20870;SDS011;10595;51.218;3.452;2022-10-16T05:54:16;4.60;;;2.00;;
20870;SDS011;10595;51.218;3.452;2022-10-16T05:56:42;5.93;;;2.37;;
20870;SDS011;10595;51.218;3.452;2022-10-16T05:59:08;5.30;;;2.00;;
20870;SDS011;10595;51.218;3.452;2022-10-16T06:01:34;9.87;;;2.40;;
20870;SDS011;10595;51.218;3.452;2022-10-16T06:04:01;6.27;;;1.93;;
20870;SDS011;10595;51.218;3.452;2022-10-16T06:06:28;6.70;;;2.07;;
20870;SDS011;10595;51.218;3.452;2022-10-16T06:08:55;10.50;;;2.20;;
20870;SDS011;10595;51.218;3.452;2022-10-16T06:11:22;5.00;;;2.17;;
20870;SDS011;10595;51.218;3.452;2022-10-16T06:13:52;5.33;;;2.07;;
20870;SDS011;10595;51.218;3.452;2022-10-16T06:16:18;7.73;;;2.20;;
20870;SDS011;10595;51.218;3.452;2022-10-16T06:18:45;5.40;;;2.10;;
20870;SDS011;10595;51.218;3.452;2022-10-16T06:21:12;7.33;;;2.13;;
20870;SDS011;10595;51.218;3.452;2022-10-16T06:23:39;8.53;;;2.23;;
20870;SDS011;10595;51.218;3.452;2022-10-16T06:26:09;7.33;;;2.20;;
20870;SDS011;10595;51.218;3.452;2022-10-16T06:28:35;6.30;;;2.37;;
20870;SDS011;10595;51.218;3.452;2022-10-16T06:31:02;10.23;;;2.13;;
20870;SDS011;10595;51.218;3.452;2022-10-16T06:33:28;7.80;;;2.47;;
20870;SDS011;10595;51.218;3.452;2022-10-16T06:36:05;8.20;;;2.37;;
20870;SDS011;10595;51.218;3.452;2022-10-16T06:38:31;11.63;;;2.10;;
20870;SDS011;10595;51.218;3.452;2022-10-16T06:40:57;4.47;;;1.90;;
20870;SDS011;10595;51.218;3.452;2022-10-16T06:43:23;8.47;;;2.07;;
20870;SDS011;10595;51.218;3.452;2022-10-16T06:45:52;7.13;;;1.90;;
20870;SDS011;10595;51.218;3.452;2022-10-16T06:48:19;7.57;;;1.73;;
20870;SDS011;10595;51.218;3.452;2022-10-16T06:50:54;6.07;;;2.60;;
20870;SDS011;10595;51.218;3.452;2022-10-16T06:53:21;7.57;;;1.83;;
20870;SDS011;10595;51.218;3.452;2022-10-16T06:55:47;5.77;;;2.20;;
20870;SDS011;10595;51.218;3.452;2022-10-16T06:58:12;5.73;;;1.93;;
20870;SDS011;10595;51.218;3.452;2022-10-16T07:00:38;4.00;;;1.80;;
20870;SDS011;10595;51.218;3.452;2022-10-16T07:03:04;8.23;;;2.40;;
20870;SDS011;10595;51.218;3.452;2022-10-16T07:05:30;5.80;;;2.47;;
20870;SDS011;10595;51.218;3.452;2022-10-16T07:07:56;8.00;;;2.37;;
20870;SDS011;10595;51.218;3.452;2022-10-16T07:10:22;6.13;;;2.10;;
20870;SDS011;10595;51.218;3.452;2022-10-16T07:12:49;8.10;;;2.20;;
20870;SDS011;10595;51.218;3.452;2022-10-16T07:15:15;7.20;;;2.00;;
20870;SDS011;10595;51.218;3.452;2022-10-16T07:17:41;6.07;;;1.97;;
20870;SDS011;10595;51.218;3.452;2022-10-16T07:20:07;5.57;;;2.03;;
20870;SDS011;10595;51.218;3.452;2022-10-16T07:22:33;4.53;;;1.90;;
20870;SDS011;10595;51.218;3.452;2022-10-16T07:24:59;6.90;;;2.27;;
20870;SDS011;10595;51.218;3.452;2022-10-16T07:27:25;7.53;;;2.53;;
20870;SDS011;10595;51.218;3.452;2022-10-16T07:29:51;9.97;;;2.23;;
20870;SDS011;10595;51.218;3.452;2022-10-16T07:32:17;6.50;;;1.90;;
20870;SDS011;10595;51.218;3.452;2022-10-16T07:34:43;6.83;;;2.13;;
20870;SDS011;10595;51.218;3.452;2022-10-16T07:37:10;6.67;;;1.97;;
20870;SDS011;10595;51.218;3.452;2022-10-16T07:39:37;13.67;;;2.30;;
20870;SDS011;10595;51.218;3.452;2022-10-16T07:42:03;9.77;;;2.37;;
20870;SDS011;10595;51.218;3.452;2022-10-16T07:44:29;10.57;;;2.10;;
20870;SDS011;10595;51.218;3.452;2022-10-16T07:46:55;11.37;;;2.50;;
20870;SDS011;10595;51.218;3.452;2022-10-16T07:49:21;7.03;;;2.20;;
20870;SDS011;10595;51.218;3.452;2022-10-16T07:51:47;8.47;;;2.27;;
20870;SDS011;10595;51.218;3.452;2022-10-16T07:54:13;5.17;;;2.00;;
20870;SDS011;10595;51.218;3.452;2022-10-16T07:56:39;9.00;;;2.67;;
20870;SDS011;10595;51.218;3.452;2022-10-16T07:59:05;8.57;;;2.00;;
20870;SDS011;10595;51.218;3.452;2022-10-16T08:01:30;8.53;;;2.20;;
20870;SDS011;10595;51.218;3.452;2022-10-16T08:03:56;6.30;;;2.43;;
20870;SDS011;10595;51.218;3.452;2022-10-16T08:06:22;5.13;;;2.20;;
20870;SDS011;10595;51.218;3.452;2022-10-16T08:08:49;7.43;;;2.70;;
20870;SDS011;10595;51.218;3.452;2022-10-16T08:11:15;8.83;;;2.40;;
20870;SDS011;10595;51.218;3.452;2022-10-16T08:13:41;7.53;;;2.57;;
20870;SDS011;10595;51.218;3.452;2022-10-16T08:16:07;9.67;;;2.70;;
20870;SDS011;10595;51.218;3.452;2022-10-16T08:18:35;9.27;;;2.50;;
20870;SDS011;10595;51.218;3.452;2022-10-16T08:21:01;9.33;;;2.40;;
20870;SDS011;10595;51.218;3.452;2022-10-16T08:23:28;6.40;;;2.20;;
20870;SDS011;10595;51.218;3.452;2022-10-16T08:25:54;5.37;;;2.17;;
20870;SDS011;10595;51.218;3.452;2022-10-16T08:28:20;6.13;;;2.07;;
20870;SDS011;10595;51.218;3.452;2022-10-16T08:30:46;11.30;;;2.70;;
20870;SDS011;10595;51.218;3.452;2022-10-16T08:33:13;10.23;;;2.30;;
20870;SDS011;10595;51.218;3.452;2022-10-16T08:35:39;9.70;;;2.60;;
20870;SDS011;10595;51.218;3.452;2022-10-16T08:38:05;6.90;;;2.07;;
20870;SDS011;10595;51.218;3.452;2022-10-16T08:40:32;8.13;;;2.20;;
20870;SDS011;10595;51.218;3.452;2022-10-16T08:45:46;8.27;;;2.00;;
20870;SDS011;10595;51.218;3.452;2022-10-16T08:50:53;7.63;;;2.37;;
20870;SDS011;10595;51.218;3.452;2022-10-16T08:53:22;7.87;;;1.83;;
20870;SDS011;10595;51.218;3.452;2022-10-16T08:55:50;8.73;;;1.70;;
20870;SDS011;10595;51.218;3.452;2022-10-16T08:58:17;9.97;;;2.50;;
20870;SDS011;10595;51.218;3.452;2022-10-16T09:00:51;7.73;;;1.60;;
20870;SDS011;10595;51.218;3.452;2022-10-16T09:08:20;7.23;;;1.83;;
20870;SDS011;10595;51.218;3.452;2022-10-16T09:10:51;6.00;;;1.60;;
20870;SDS011;10595;51.218;3.452;2022-10-16T09:13:21;10.17;;;1.90;;
20870;SDS011;10595;51.218;3.452;2022-10-16T09:23:25;8.87;;;2.00;;
20870;SDS011;10595;51.218;3.452;2022-10-16T09:25:51;9.47;;;1.87;;
20870;SDS011;10595;51.218;3.452;2022-10-16T09:28:18;12.67;;;1.97;;
20870;SDS011;10595;51.218;3.452;2022-10-16T09:30:45;7.80;;;1.83;;
20870;SDS011;10595;51.218;3.452;2022-10-16T09:33:13;8.50;;;1.80;;
20870;SDS011;10595;51.218;3.452;2022-10-16T09:35:40;13.70;;;2.00;;
20870;SDS011;10595;51.218;3.452;2022-10-16T09:38:07;8.77;;;2.00;;
20870;SDS011;10595;51.218;3.452;2022-10-16T09:40:35;10.73;;;2.37;;
20870;SDS011;10595;51.218;3.452;2022-10-16T09:43:20;7.53;;;1.77;;
20870;SDS011;10595;51.218;3.452;2022-10-16T09:45:53;10.43;;;2.23;;
20870;SDS011;10595;51.218;3.452;2022-10-16T09:48:20;8.00;;;2.43;;
20870;SDS011;10595;51.218;3.452;2022-10-16T09:50:55;5.97;;;1.60;;
20870;SDS011;10595;51.218;3.452;2022-10-16T09:53:21;5.97;;;1.80;;
20870;SDS011;10595;51.218;3.452;2022-10-16T09:55:51;10.03;;;1.90;;
20870;SDS011;10595;51.218;3.452;2022-10-16T09:58:17;9.30;;;2.23;;
20870;SDS011;10595;51.218;3.452;2022-10-16T10:00:53;9.80;;;2.00;;
20870;SDS011;10595;51.218;3.452;2022-10-16T10:03:55;6.03;;;1.80;;
20870;SDS011;10595;51.218;3.452;2022-10-16T10:06:23;12.37;;;2.20;;
20870;SDS011;10595;51.218;3.452;2022-10-16T10:08:54;9.13;;;2.10;;
20870;SDS011;10595;51.218;3.452;2022-10-16T10:16:51;8.13;;;2.20;;
20870;SDS011;10595;51.218;3.452;2022-10-16T10:19:22;11.17;;;2.07;;
20870;SDS011;10595;51.218;3.452;2022-10-16T10:21:48;10.37;;;2.37;;
20870;SDS011;10595;51.218;3.452;2022-10-16T10:24:15;15.97;;;2.43;;
20870;SDS011;10595;51.218;3.452;2022-10-16T10:26:44;12.73;;;2.30;;
20870;SDS011;10595;51.218;3.452;2022-10-16T10:29:23;11.43;;;2.33;;
20870;SDS011;10595;51.218;3.452;2022-10-16T10:32:03;10.00;;;2.23;;
20870;SDS011;10595;51.218;3.452;2022-10-16T10:37:01;13.07;;;2.93;;
20870;SDS011;10595;51.218;3.452;2022-10-16T10:39:32;9.60;;;2.90;;
20870;SDS011;10595;51.218;3.452;2022-10-16T10:54:45;13.20;;;2.07;;
20870;SDS011;10595;51.218;3.452;2022-10-16T11:02:17;10.67;;;2.43;;
20870;SDS011;10595;51.218;3.452;2022-10-16T11:07:47;12.53;;;2.23;;
20870;SDS011;10595;51.218;3.452;2022-10-16T11:10:16;8.17;;;1.70;;
20870;SDS011;10595;51.218;3.452;2022-10-16T11:12:45;10.53;;;2.17;;
20870;SDS011;10595;51.218;3.452;2022-10-16T11:15:14;6.80;;;2.00;;
20870;SDS011;10595;51.218;3.452;2022-10-16T11:17:42;9.83;;;2.27;;
20870;SDS011;10595;51.218;3.452;2022-10-16T11:22:37;9.40;;;2.20;;
20870;SDS011;10595;51.218;3.452;2022-10-16T11:25:13;12.10;;;2.83;;
20870;SDS011;10595;51.218;3.452;2022-10-16T11:30:26;7.30;;;1.70;;
20870;SDS011;10595;51.218;3.452;2022-10-16T11:40:57;9.80;;;1.80;;
20870;SDS011;10595;51.218;3.452;2022-10-16T11:43:25;7.90;;;2.03;;
20870;SDS011;10595;51.218;3.452;2022-10-16T11:45:57;11.40;;;1.60;;
20870;SDS011;10595;51.218;3.452;2022-10-16T11:50:55;10.50;;;2.30;;
20870;SDS011;10595;51.218;3.452;2022-10-16T11:56:03;7.50;;;2.00;;
20870;SDS011;10595;51.218;3.452;2022-10-16T11:58:37;10.67;;;1.50;;
20870;SDS011;10595;51.218;3.452;2022-10-16T12:01:16;10.13;;;2.23;;
20870;SDS011;10595;51.218;3.452;2022-10-16T12:04:27;12.43;;;2.40;;
20870;SDS011;10595;51.218;3.452;2022-10-16T12:06:53;9.53;;;1.90;;
20870;SDS011;10595;51.218;3.452;2022-10-16T12:09:30;11.33;;;2.07;;
20870;SDS011;10595;51.218;3.452;2022-10-16T12:11:57;8.40;;;2.20;;
20870;SDS011;10595;51.218;3.452;2022-10-16T12:17:01;8.67;;;2.23;;
20870;SDS011;10595;51.218;3.452;2022-10-16T12:19:30;15.33;;;2.67;;
20870;SDS011;10595;51.218;3.452;2022-10-16T12:21:57;11.83;;;2.40;;
20870;SDS011;10595;51.218;3.452;2022-10-16T12:26:55;8.07;;;2.00;;
20870;SDS011;10595;51.218;3.452;2022-10-16T12:29:37;7.80;;;2.10;;
20870;SDS011;10595;51.218;3.452;2022-10-16T12:32:05;9.57;;;1.87;;
20870;SDS011;10595;51.218;3.452;2022-10-16T12:34:37;9.93;;;2.53;;
20870;SDS011;10595;51.218;3.452;2022-10-16T12:39:49;12.13;;;2.50;;
20870;SDS011;10595;51.218;3.452;2022-10-16T12:44:55;11.47;;;2.50;;
20870;SDS011;10595;51.218;3.452;2022-10-16T12:47:23;10.50;;;2.20;;
20870;SDS011;10595;51.218;3.452;2022-10-16T12:49:53;7.33;;;2.03;;
20870;SDS011;10595;51.218;3.452;2022-10-16T12:52:36;10.37;;;2.47;;
20870;SDS011;10595;51.218;3.452;2022-10-16T12:55:03;7.20;;;1.73;;
20870;SDS011;10595;51.218;3.452;2022-10-16T13:07:44;11.17;;;2.60;;
20870;SDS011;10595;51.218;3.452;2022-10-16T13:11:00;12.40;;;2.43;;
20870;SDS011;10595;51.218;3.452;2022-10-16T13:15:41;8.17;;;2.20;;
20870;SDS011;10595;51.218;3.452;2022-10-16T13:23:27;5.70;;;1.80;;
20870;SDS011;10595;51.218;3.452;2022-10-16T13:28:39;9.13;;;2.10;;
20870;SDS011;10595;51.218;3.452;2022-10-16T13:31:09;8.50;;;2.07;;
20870;SDS011;10595;51.218;3.452;2022-10-16T13:33:39;7.47;;;1.87;;
20870;SDS011;10595;51.218;3.452;2022-10-16T13:36:07;8.53;;;1.90;;
20870;SDS011;10595;51.218;3.452;2022-10-16T13:38:44;6.43;;;1.40;;
20870;SDS011;10595;51.218;3.452;2022-10-16T13:41:14;8.20;;;1.50;;
20870;SDS011;10595;51.218;3.452;2022-10-16T13:43:45;8.30;;;1.73;;
20870;SDS011;10595;51.218;3.452;2022-10-16T13:46:13;7.80;;;1.80;;
20870;SDS011;10595;51.218;3.452;2022-10-16T13:48:39;9.70;;;1.77;;
20870;SDS011;10595;51.218;3.452;2022-10-16T13:51:14;8.73;;;1.70;;
20870;SDS011;10595;51.218;3.452;2022-10-16T13:53:41;6.00;;;2.03;;
20870;SDS011;10595;51.218;3.452;2022-10-16T13:56:10;9.30;;;1.60;;
20870;SDS011;10595;51.218;3.452;2022-10-16T13:58:36;5.90;;;1.50;;
20870;SDS011;10595;51.218;3.452;2022-10-16T14:01:23;6.80;;;1.80;;
20870;SDS011;10595;51.218;3.452;2022-10-16T14:03:50;10.30;;;2.10;;
20870;SDS011;10595;51.218;3.452;2022-10-16T14:06:18;8.73;;;1.83;;
20870;SDS011;10595;51.218;3.452;2022-10-16T14:08:50;8.77;;;2.00;;
20870;SDS011;10595;51.218;3.452;2022-10-16T14:11:21;6.17;;;2.10;;
20870;SDS011;10595;51.218;3.452;2022-10-16T14:13:48;5.23;;;1.80;;
20870;SDS011;10595;51.218;3.452;2022-10-16T14:16:16;7.57;;;1.83;;
20870;SDS011;10595;51.218;3.452;2022-10-16T14:18:44;4.37;;;1.63;;
20870;SDS011;10595;51.218;3.452;2022-10-16T14:21:12;5.83;;;1.80;;
20870;SDS011;10595;51.218;3.452;2022-10-16T14:23:40;3.77;;;1.60;;
20870;SDS011;10595;51.218;3.452;2022-10-16T14:26:12;6.17;;;2.17;;
20870;SDS011;10595;51.218;3.452;2022-10-16T14:28:38;6.27;;;1.67;;
20870;SDS011;10595;51.218;3.452;2022-10-16T14:34:04;8.60;;;1.67;;
20870;SDS011;10595;51.218;3.452;2022-10-16T14:36:31;3.63;;;1.77;;
20870;SDS011;10595;51.218;3.452;2022-10-16T14:39:13;2.53;;;1.17;;
20870;SDS011;10595;51.218;3.452;2022-10-16T14:41:44;3.00;;;1.40;;
20870;SDS011;10595;51.218;3.452;2022-10-16T14:44:10;7.50;;;2.07;;
20870;SDS011;10595;51.218;3.452;2022-10-16T14:46:38;3.83;;;1.57;;
20870;SDS011;10595;51.218;3.452;2022-10-16T14:51:37;4.80;;;1.60;;
20870;SDS011;10595;51.218;3.452;2022-10-16T14:54:03;3.73;;;1.40;;
20870;SDS011;10595;51.218;3.452;2022-10-16T14:56:34;5.97;;;1.63;;
20870;SDS011;10595;51.218;3.452;2022-10-16T14:59:12;4.93;;;1.27;;
20870;SDS011;10595;51.218;3.452;2022-10-16T15:01:39;5.63;;;1.50;;
20870;SDS011;10595;51.218;3.452;2022-10-16T15:04:07;5.73;;;1.57;;
20870;SDS011;10595;51.218;3.452;2022-10-16T15:06:33;8.73;;;1.60;;
20870;SDS011;10595;51.218;3.452;2022-10-16T15:08:59;6.17;;;1.40;;
20870;SDS011;10595;51.218;3.452;2022-10-16T15:11:25;8.03;;;1.30;;
20870;SDS011;10595;51.218;3.452;2022-10-16T15:13:51;5.97;;;1.30;;
20870;SDS011;10595;51.218;3.452;2022-10-16T15:16:17;2.53;;;1.30;;
20870;SDS011;10595;51.218;3.452;2022-10-16T15:18:43;2.60;;;1.53;;
20870;SDS011;10595;51.218;3.452;2022-10-16T15:21:17;6.37;;;1.77;;
20870;SDS011;10595;51.218;3.452;2022-10-16T15:23:46;5.70;;;1.77;;
20870;SDS011;10595;51.218;3.452;2022-10-16T15:26:12;4.43;;;1.57;;
20870;SDS011;10595;51.218;3.452;2022-10-16T15:28:38;11.23;;;1.50;;
20870;SDS011;10595;51.218;3.452;2022-10-16T15:31:04;5.60;;;1.40;;
20870;SDS011;10595;51.218;3.452;2022-10-16T15:33:30;3.17;;;1.27;;
20870;SDS011;10595;51.218;3.452;2022-10-16T15:36:00;4.37;;;1.13;;
20870;SDS011;10595;51.218;3.452;2022-10-16T15:38:27;3.50;;;1.30;;
20870;SDS011;10595;51.218;3.452;2022-10-16T15:40:54;3.67;;;1.37;;
20870;SDS011;10595;51.218;3.452;2022-10-16T15:43:20;5.30;;;1.30;;
20870;SDS011;10595;51.218;3.452;2022-10-16T15:45:57;6.20;;;1.47;;
20870;SDS011;10595;51.218;3.452;2022-10-16T15:48:24;4.33;;;1.50;;
20870;SDS011;10595;51.218;3.452;2022-10-16T15:50:50;4.90;;;1.40;;
20870;SDS011;10595;51.218;3.452;2022-10-16T15:53:16;3.03;;;1.53;;
20870;SDS011;10595;51.218;3.452;2022-10-16T15:55:42;3.53;;;1.13;;
20870;SDS011;10595;51.218;3.452;2022-10-16T15:58:08;3.23;;;1.10;;
20870;SDS011;10595;51.218;3.452;2022-10-16T16:00:34;2.83;;;1.10;;
20870;SDS011;10595;51.218;3.452;2022-10-16T16:03:00;2.20;;;1.10;;
20870;SDS011;10595;51.218;3.452;2022-10-16T16:05:26;1.83;;;1.27;;
20870;SDS011;10595;51.218;3.452;2022-10-16T16:07:52;6.83;;;1.60;;
20870;SDS011;10595;51.218;3.452;2022-10-16T16:10:18;4.77;;;1.20;;
20870;SDS011;10595;51.218;3.452;2022-10-16T16:12:48;4.63;;;1.20;;
20870;SDS011;10595;51.218;3.452;2022-10-16T16:15:17;2.87;;;1.27;;
20870;SDS011;10595;51.218;3.452;2022-10-16T16:17:43;3.30;;;1.30;;
20870;SDS011;10595;51.218;3.452;2022-10-16T16:20:09;4.50;;;1.73;;
20870;SDS011;10595;51.218;3.452;2022-10-16T16:22:35;2.73;;;2.00;;
20870;SDS011;10595;51.218;3.452;2022-10-16T16:25:01;3.23;;;2.43;;
20870;SDS011;10595;51.218;3.452;2022-10-16T16:27:27;3.83;;;2.77;;
20870;SDS011;10595;51.218;3.452;2022-10-16T16:29:54;8.23;;;2.60;;
20870;SDS011;10595;51.218;3.452;2022-10-16T16:32:20;6.80;;;2.77;;
20870;SDS011;10595;51.218;3.452;2022-10-16T16:34:47;4.80;;;2.23;;
20870;SDS011;10595;51.218;3.452;2022-10-16T16:37:13;3.90;;;2.40;;
20870;SDS011;10595;51.218;3.452;2022-10-16T16:39:39;4.37;;;2.43;;
20870;SDS011;10595;51.218;3.452;2022-10-16T16:42:05;5.03;;;2.07;;
20870;SDS011;10595;51.218;3.452;2022-10-16T16:44:32;5.73;;;2.50;;
20870;SDS011;10595;51.218;3.452;2022-10-16T16:46:58;5.23;;;2.67;;
20870;SDS011;10595;51.218;3.452;2022-10-16T16:49:24;4.87;;;3.30;;